createdAt,value
2023-03-25T00:02:20.446Z,10.41
2023-03-25T00:04:51.027Z,10.45
2023-03-25T00:07:18.727Z,10.46
2023-03-25T00:09:45.839Z,10.56
2023-03-25T00:12:14.426Z,10.59
2023-03-25T00:14:41.283Z,10.61
2023-03-25T00:17:08.544Z,10.64
2023-03-25T00:19:36.725Z,10.62
2023-03-25T00:22:03.504Z,10.56
2023-03-25T00:24:30.382Z,10.43
2023-03-25T00:26:57.101Z,10.65
2023-03-25T00:29:24.069Z,10.56
2023-03-25T00:31:50.905Z,10.53
2023-03-25T00:34:17.708Z,10.52
2023-03-25T00:36:46.172Z,10.56
2023-03-25T00:39:12.980Z,10.72
2023-03-25T00:41:39.786Z,10.63
2023-03-25T00:44:06.794Z,10.66
2023-03-25T00:46:34.965Z,10.66
2023-03-25T00:49:01.871Z,10.74
2023-03-25T00:51:29.736Z,10.65
2023-03-25T00:53:59.935Z,10.59
2023-03-25T00:56:28.971Z,10.62
2023-03-25T00:58:56.823Z,10.64
2023-03-25T01:01:26.831Z,10.58
2023-03-25T01:03:55.747Z,10.39
2023-03-25T01:06:22.559Z,10.27
2023-03-25T01:08:52.797Z,10.14
2023-03-25T01:11:25.395Z,9.98
2023-03-25T01:13:54.588Z,10.09
2023-03-25T01:16:21.553Z,10.03
2023-03-25T01:18:48.527Z,10.00
2023-03-25T01:21:16.323Z,10.08
2023-03-25T01:23:43.620Z,10.12
2023-03-25T01:26:11.244Z,10.08
2023-03-25T01:28:40.914Z,10.06
2023-03-25T01:31:10.405Z,10.11
2023-03-25T01:33:37.705Z,10.04
2023-03-25T01:36:06.961Z,9.69
2023-03-25T01:38:34.600Z,9.55
2023-03-25T01:41:01.427Z,9.57
2023-03-25T01:43:28.233Z,9.60
2023-03-25T01:45:56.387Z,9.51
2023-03-25T01:48:29.199Z,9.88
2023-03-25T01:51:05.461Z,9.89
2023-03-25T01:53:33.458Z,9.84
2023-03-25T01:56:05.694Z,9.69
2023-03-25T01:58:35.916Z,9.79
2023-03-25T02:01:04.778Z,9.76
2023-03-25T02:03:32.235Z,9.78
2023-03-25T02:06:04.890Z,9.97
2023-03-25T02:08:37.002Z,10.03
2023-03-25T02:11:05.316Z,10.12
2023-03-25T02:13:36.441Z,10.22
2023-03-25T02:16:27.919Z,10.30
2023-03-25T02:19:22.932Z,10.41
2023-03-25T02:22:26.137Z,10.45
2023-03-25T02:25:30.542Z,10.59
2023-03-25T02:28:09.193Z,10.36
2023-03-25T02:31:13.369Z,10.51
2023-03-25T02:34:12.928Z,10.41
2023-03-25T02:37:03.864Z,10.67
2023-03-25T02:39:40.543Z,10.75
2023-03-25T02:42:20.497Z,10.17
2023-03-25T02:44:56.988Z,9.91
2023-03-25T02:47:29.468Z,10.11
2023-03-25T02:50:03.425Z,9.87
2023-03-25T02:52:36.148Z,10.27
2023-03-25T02:55:10.742Z,10.07
2023-03-25T02:57:44.880Z,10.02
2023-03-25T03:00:17.667Z,9.63
2023-03-25T03:02:52.081Z,9.55
2023-03-25T03:05:26.722Z,9.44
2023-03-25T03:08:07.790Z,9.61
2023-03-25T03:10:48.991Z,9.47
2023-03-25T03:13:33.065Z,9.12
2023-03-25T03:16:12.249Z,9.17
2023-03-25T03:18:51.174Z,9.08
2023-03-25T03:21:28.033Z,8.80
2023-03-25T03:24:02.654Z,8.60
2023-03-25T03:26:41.625Z,8.61
2023-03-25T03:29:16.570Z,8.61
2023-03-25T03:32:05.806Z,8.58
2023-03-25T03:34:46.504Z,8.54
2023-03-25T03:37:20.856Z,8.61
2023-03-25T03:39:50.726Z,8.56
2023-03-25T03:42:29.848Z,8.64
2023-03-25T03:45:05.760Z,8.62
2023-03-25T03:47:42.829Z,8.61
2023-03-25T03:50:15.958Z,8.66
2023-03-25T03:52:52.532Z,8.53
2023-03-25T03:55:26.511Z,8.67
2023-03-25T03:58:00.860Z,8.79
2023-03-25T04:00:35.775Z,8.79
2023-03-25T04:03:11.939Z,9.00
2023-03-25T04:05:43.517Z,9.09
2023-03-25T04:08:18.549Z,9.07
2023-03-25T04:10:55.114Z,8.93
2023-03-25T04:13:28.524Z,8.86
2023-03-25T04:15:57.940Z,8.82
2023-03-25T04:18:24.916Z,8.67
2023-03-25T04:20:51.856Z,8.81
2023-03-25T04:23:18.662Z,8.95
2023-03-25T04:25:45.704Z,9.12
2023-03-25T04:28:12.869Z,9.07
2023-03-25T04:30:41.188Z,8.99
2023-03-25T04:33:08.844Z,8.81
2023-03-25T04:35:36.071Z,8.85
2023-03-25T04:38:02.851Z,8.80
2023-03-25T04:40:29.765Z,9.10
2023-03-25T04:42:57.010Z,9.12
2023-03-25T04:45:24.360Z,9.18
2023-03-25T04:47:53.931Z,9.46
2023-03-25T04:50:24.521Z,9.47
2023-03-25T04:52:52.856Z,9.53
2023-03-25T04:55:20.331Z,9.61
2023-03-25T04:57:49.863Z,9.55
2023-03-25T05:00:20.952Z,9.44
2023-03-25T05:02:50.647Z,9.44
2023-03-25T05:05:21.869Z,9.43
2023-03-25T05:07:51.823Z,9.40
2023-03-25T05:10:22.456Z,9.31
2023-03-25T05:12:50.016Z,9.15
2023-03-25T05:15:17.475Z,9.03
2023-03-25T05:17:44.925Z,9.18
2023-03-25T05:20:12.940Z,9.15
2023-03-25T05:22:41.165Z,9.09
2023-03-25T05:25:10.404Z,9.10
2023-03-25T05:27:38.784Z,9.07
2023-03-25T05:30:08.370Z,9.00
2023-03-25T05:32:35.478Z,8.97
2023-03-25T05:35:03.898Z,9.04
2023-03-25T05:37:31.269Z,8.87
2023-03-25T05:39:59.506Z,8.59
2023-03-25T05:42:26.482Z,8.50
2023-03-25T05:44:54.054Z,8.49
2023-03-25T05:47:23.950Z,8.55
2023-03-25T05:49:52.897Z,8.62
2023-03-25T05:52:21.142Z,8.76
2023-03-25T05:54:47.896Z,8.81
2023-03-25T05:57:16.545Z,8.89
2023-03-25T05:59:43.390Z,9.07
2023-03-25T06:02:14.035Z,9.17
2023-03-25T06:04:41.084Z,9.17
2023-03-25T06:07:08.951Z,9.32
2023-03-25T06:09:35.990Z,9.33
2023-03-25T06:12:02.908Z,9.40
2023-03-25T06:14:31.399Z,9.46
2023-03-25T06:16:58.327Z,9.50
2023-03-25T06:19:25.336Z,9.61
2023-03-25T06:21:52.362Z,9.67
2023-03-25T06:24:19.222Z,9.72
2023-03-25T06:26:46.129Z,9.86
2023-03-25T06:29:13.125Z,9.95
2023-03-25T06:31:41.342Z,10.02
2023-03-25T06:34:08.335Z,10.05
2023-03-25T06:36:35.167Z,9.99
2023-03-25T06:39:02.109Z,10.10
2023-03-25T06:41:29.417Z,10.10
2023-03-25T06:44:11.136Z,10.06
2023-03-25T06:46:48.505Z,10.11
2023-03-25T06:49:27.541Z,10.15
2023-03-25T06:51:56.051Z,10.08
2023-03-25T06:54:22.866Z,10.07
2023-03-25T06:56:49.790Z,10.10
2023-03-25T06:59:16.960Z,10.16
2023-03-25T07:01:43.846Z,10.12
2023-03-25T07:04:12.078Z,9.92
2023-03-25T07:06:40.767Z,10.03
2023-03-25T07:09:18.751Z,10.08
2023-03-25T07:11:45.611Z,9.98
2023-03-25T07:14:12.563Z,9.99
2023-03-25T07:16:39.586Z,10.11
2023-03-25T07:19:06.425Z,10.23
2023-03-25T07:21:34.625Z,10.33
2023-03-25T07:24:17.290Z,10.27
2023-03-25T07:26:45.439Z,10.03
2023-03-25T07:29:34.970Z,9.95
2023-03-25T07:32:29.635Z,9.95
2023-03-25T07:34:57.543Z,10.02
2023-03-25T07:38:21.744Z,10.06
2023-03-25T07:40:50.030Z,9.76
2023-03-25T07:47:09.355Z,9.74
2023-03-25T07:49:45.788Z,9.97
2023-03-25T07:52:13.066Z,10.00
2023-03-25T07:54:59.077Z,10.05
2023-03-25T07:57:42.488Z,10.28
2023-03-25T08:00:13.278Z,10.32
2023-03-25T08:02:40.674Z,10.32
2023-03-25T08:05:09.502Z,10.36
2023-03-25T08:07:36.510Z,10.23
2023-03-25T08:10:06.129Z,10.27
2023-03-25T08:12:32.961Z,10.33
2023-03-25T08:14:59.979Z,10.42
2023-03-25T08:17:27.279Z,10.52
2023-03-25T08:19:54.188Z,10.60
2023-03-25T08:22:21.122Z,10.77
2023-03-25T08:24:48.094Z,10.99
2023-03-25T08:27:16.553Z,11.14
2023-03-25T08:29:43.800Z,11.40
2023-03-25T08:32:10.924Z,11.57
2023-03-25T08:34:37.818Z,11.47
2023-03-25T08:37:04.764Z,11.51
2023-03-25T08:39:31.766Z,11.72
2023-03-25T08:41:58.597Z,11.76
2023-03-25T08:44:26.902Z,12.00
2023-03-25T08:46:53.709Z,12.02
2023-03-25T08:49:20.872Z,11.55
2023-03-25T08:51:48.018Z,11.58
2023-03-25T08:54:16.489Z,11.73
2023-03-25T08:56:43.401Z,11.78
2023-03-25T08:59:10.287Z,11.42
2023-03-25T09:01:38.896Z,11.46
2023-03-25T09:04:05.967Z,10.79
2023-03-25T09:06:47.914Z,10.82
2023-03-25T09:09:20.013Z,10.87
2023-03-25T09:11:46.868Z,10.84
2023-03-25T09:14:13.775Z,10.88
2023-03-25T09:20:59.281Z,11.37
2023-03-25T09:23:26.665Z,11.66
2023-03-25T09:25:53.633Z,11.55
2023-03-25T09:28:20.530Z,11.72
2023-03-25T09:30:47.392Z,11.32
2023-03-25T09:33:14.596Z,11.55
2023-03-25T09:35:41.612Z,11.75
2023-03-25T09:38:09.910Z,11.93
2023-03-25T09:40:36.936Z,11.82
2023-03-25T09:43:24.215Z,12.62
2023-03-25T09:45:53.227Z,13.01
2023-03-25T09:48:32.327Z,12.80
2023-03-25T09:51:04.098Z,12.74
2023-03-25T09:53:41.536Z,12.70
2023-03-25T09:56:17.465Z,12.64
2023-03-25T09:58:47.957Z,12.12
2023-03-25T10:01:28.491Z,12.02
2023-03-25T10:04:26.777Z,11.81
2023-03-25T10:07:10.224Z,11.87
2023-03-25T10:09:54.419Z,11.57
2023-03-25T10:12:37.122Z,11.76
2023-03-25T10:15:21.576Z,12.50
2023-03-25T10:18:21.811Z,13.39
2023-03-25T10:21:02.083Z,13.27
2023-03-25T10:23:38.695Z,13.13
2023-03-25T10:26:17.597Z,12.97
2023-03-25T10:28:56.307Z,12.72
2023-03-25T10:31:29.483Z,12.48
2023-03-25T10:34:04.096Z,12.16
2023-03-25T10:36:37.636Z,12.01
2023-03-25T10:39:17.299Z,12.87
2023-03-25T10:41:52.739Z,12.83
2023-03-25T10:44:25.121Z,13.82
2023-03-25T10:46:58.260Z,14.68
2023-03-25T10:49:29.871Z,14.65
2023-03-25T10:51:58.692Z,15.19
2023-03-25T10:54:31.251Z,15.47
2023-03-25T10:57:06.253Z,14.71
2023-03-25T10:59:40.103Z,14.27
2023-03-25T11:02:17.821Z,14.61
2023-03-25T11:04:48.126Z,14.62
2023-03-25T11:07:21.010Z,14.52
2023-03-25T11:09:49.610Z,14.18
2023-03-25T11:12:30.241Z,13.60
2023-03-25T11:15:07.565Z,13.47
2023-03-25T11:17:35.314Z,14.67
2023-03-25T11:20:16.590Z,15.47
2023-03-25T11:22:50.904Z,16.04
2023-03-25T11:25:25.120Z,16.67
2023-03-25T11:27:59.738Z,16.39
2023-03-25T11:30:26.802Z,16.73
2023-03-25T11:33:00.248Z,15.93
2023-03-25T11:35:31.342Z,15.49
2023-03-25T11:38:01.403Z,15.19
2023-03-25T11:40:30.761Z,14.90
2023-03-25T11:43:01.891Z,15.27
2023-03-25T11:45:35.743Z,15.23
2023-03-25T11:48:12.840Z,14.55
2023-03-25T11:50:47.740Z,14.31
2023-03-25T11:53:17.761Z,15.05
2023-03-25T11:55:49.679Z,15.84
2023-03-25T11:58:22.222Z,16.38
2023-03-25T12:00:51.329Z,16.51
2023-03-25T12:03:21.968Z,15.80
2023-03-25T12:06:03.524Z,16.22
2023-03-25T12:08:42.439Z,16.28
2023-03-25T12:11:16.359Z,15.76
2023-03-25T12:14:22.778Z,16.03
2023-03-25T12:17:01.324Z,15.66
2023-03-25T12:19:44.701Z,15.84
2023-03-25T12:22:29.914Z,17.03
2023-03-25T12:25:15.921Z,16.22
2023-03-25T12:28:02.654Z,16.52
2023-03-25T12:30:56.612Z,15.68
2023-03-25T12:33:46.055Z,15.19
2023-03-25T12:36:31.289Z,14.62
2023-03-25T12:39:42.708Z,14.15
2023-03-25T12:42:30.385Z,13.76
2023-03-25T12:45:21.156Z,14.02
2023-03-25T12:47:59.654Z,14.34
2023-03-25T12:50:42.855Z,14.66
2023-03-25T12:53:30.456Z,14.67
2023-03-25T12:56:19.459Z,14.63
2023-03-25T12:59:16.783Z,14.52
2023-03-25T13:01:58.275Z,14.50
2023-03-25T13:04:47.592Z,14.84
2023-03-25T13:07:20.852Z,15.02
2023-03-25T13:10:02.921Z,15.08
2023-03-25T13:12:37.630Z,14.89
2023-03-25T13:15:24.651Z,14.50
2023-03-25T13:17:59.851Z,14.54
2023-03-25T13:20:34.694Z,14.65
2023-03-25T13:23:07.913Z,14.64
2023-03-25T13:25:49.084Z,14.61
2023-03-25T13:28:23.901Z,14.37
2023-03-25T13:30:52.406Z,14.48
2023-03-25T13:33:24.329Z,14.82
2023-03-25T13:35:59.242Z,14.73
2023-03-25T13:38:32.085Z,14.72
2023-03-25T13:41:12.251Z,14.30
2023-03-25T13:43:56.009Z,14.27
2023-03-25T13:46:32.869Z,14.37
2023-03-25T13:49:06.553Z,14.46
2023-03-25T13:51:35.448Z,14.59
2023-03-25T13:54:12.139Z,14.74
2023-03-25T13:57:30.865Z,14.83
2023-03-25T14:00:37.154Z,14.53
2023-03-25T14:03:31.858Z,14.59
2023-03-25T14:06:39.014Z,14.54
2023-03-25T14:09:48.686Z,14.39
2023-03-25T14:12:20.951Z,14.30
2023-03-25T14:14:58.205Z,14.31
2023-03-25T14:17:28.550Z,14.23
2023-03-25T14:20:00.133Z,14.45
2023-03-25T14:22:32.149Z,14.44
2023-03-25T14:25:00.880Z,14.34
2023-03-25T14:27:31.619Z,14.32
2023-03-25T14:30:04.415Z,14.40
2023-03-25T14:32:35.994Z,14.32
2023-03-25T14:35:46.674Z,14.28
2023-03-25T14:38:51.665Z,14.42
2023-03-25T14:41:55.984Z,14.51
2023-03-25T14:44:29.079Z,14.37
2023-03-25T14:47:28.775Z,14.39
2023-03-25T14:50:05.297Z,14.54
2023-03-25T14:52:38.828Z,14.64
2023-03-25T14:55:14.808Z,14.69
2023-03-25T14:57:44.565Z,14.58
2023-03-25T15:00:22.875Z,14.52
2023-03-25T15:03:00.289Z,14.37
2023-03-25T15:05:31.492Z,14.28
2023-03-25T15:08:10.543Z,14.21
2023-03-25T15:10:41.073Z,14.10
2023-03-25T15:13:17.867Z,14.14
2023-03-25T15:16:01.171Z,14.15
2023-03-25T15:19:07.099Z,14.18
2023-03-25T15:22:20.613Z,14.19
2023-03-25T15:25:00.193Z,14.21
2023-03-25T15:27:59.520Z,14.28
2023-03-25T15:31:01.036Z,14.28
2023-03-25T15:33:57.664Z,14.37
2023-03-25T15:36:47.113Z,14.32
2023-03-25T15:39:46.801Z,14.38
2023-03-25T15:43:14.542Z,14.45
2023-03-25T15:46:32.976Z,14.39
2023-03-25T15:49:42.713Z,14.42
2023-03-25T15:52:35.100Z,14.31
2023-03-25T15:55:09.076Z,14.29
2023-03-25T15:57:43.985Z,14.33
2023-03-25T16:00:22.523Z,14.31
2023-03-25T16:02:59.415Z,14.25
2023-03-25T16:05:28.726Z,14.20
2023-03-25T16:08:04.937Z,14.23
2023-03-25T16:10:34.135Z,14.31
2023-03-25T16:13:05.122Z,14.26
2023-03-25T16:15:36.319Z,14.29
2023-03-25T16:18:09.564Z,14.24
2023-03-25T16:20:40.148Z,14.18
2023-03-25T16:23:19.873Z,14.12
2023-03-25T16:25:50.821Z,14.10
2023-03-25T16:28:23.318Z,14.09
2023-03-25T16:30:53.601Z,13.98
2023-03-25T16:33:28.242Z,13.97
2023-03-25T16:35:59.987Z,13.92
2023-03-25T16:38:31.035Z,13.85
2023-03-25T16:41:03.479Z,13.82
2023-03-25T16:43:31.582Z,13.82
2023-03-25T16:46:02.015Z,13.79
2023-03-25T16:48:32.894Z,13.74
2023-03-25T16:51:07.007Z,13.68
2023-03-25T16:53:38.148Z,13.54
2023-03-25T16:56:22.993Z,13.26
2023-03-25T16:59:01.274Z,13.24
2023-03-25T17:01:33.023Z,13.22
2023-03-25T17:04:14.394Z,13.24
2023-03-25T17:06:47.600Z,13.15
2023-03-25T17:09:19.895Z,12.92
2023-03-25T17:11:51.850Z,12.92
2023-03-25T17:14:24.382Z,12.78
2023-03-25T17:16:53.628Z,12.74
2023-03-25T17:19:25.806Z,12.82
2023-03-25T17:22:06.509Z,12.74
2023-03-25T17:24:48.870Z,12.74
2023-03-25T17:27:24.743Z,12.81
2023-03-25T17:29:54.519Z,12.83
2023-03-25T17:32:21.912Z,12.83
2023-03-25T17:35:03.969Z,12.76
2023-03-25T17:37:32.301Z,12.74
2023-03-25T17:40:06.087Z,12.71
2023-03-25T17:42:37.070Z,12.67
2023-03-25T17:45:06.475Z,12.67
2023-03-25T17:47:33.296Z,12.66
2023-03-25T17:50:13.972Z,12.67
2023-03-25T17:52:40.815Z,12.64
2023-03-25T17:55:10.331Z,12.63
2023-03-25T17:57:40.326Z,12.65
2023-03-25T18:00:13.926Z,12.64
2023-03-25T18:02:41.154Z,12.64
2023-03-25T18:05:11.338Z,12.61
2023-03-25T18:07:40.880Z,12.59
2023-03-25T18:10:20.487Z,12.57
2023-03-25T18:12:47.439Z,12.59
2023-03-25T18:15:15.712Z,12.58
2023-03-25T18:17:45.156Z,12.53
2023-03-25T18:20:21.583Z,12.52
2023-03-25T18:22:49.347Z,12.51
2023-03-25T18:25:18.484Z,12.46
2023-03-25T18:27:51.378Z,12.40
2023-03-25T18:30:25.660Z,12.45
2023-03-25T18:32:55.074Z,12.50
2023-03-25T18:35:23.161Z,12.56
2023-03-25T18:37:50.832Z,12.55
2023-03-25T18:40:24.990Z,12.58
2023-03-25T18:42:52.568Z,12.55
2023-03-25T18:45:21.242Z,12.56
2023-03-25T18:47:49.787Z,12.59
2023-03-25T18:50:28.553Z,12.57
2023-03-25T18:53:04.549Z,12.65
2023-03-25T18:55:38.905Z,12.61
2023-03-25T18:58:05.831Z,12.60
2023-03-25T19:00:39.154Z,12.55
2023-03-25T19:03:06.589Z,12.49
2023-03-25T19:05:33.874Z,12.46
2023-03-25T19:08:01.054Z,12.45
2023-03-25T19:10:31.123Z,12.41
2023-03-25T19:13:00.420Z,12.37
2023-03-25T19:15:29.843Z,12.32
2023-03-25T19:17:58.577Z,12.26
2023-03-25T19:20:28.748Z,12.26
2023-03-25T19:22:55.760Z,12.24
2023-03-25T19:25:22.619Z,12.21
2023-03-25T19:27:49.806Z,12.14
2023-03-25T19:30:21.071Z,12.13
2023-03-25T19:32:50.977Z,12.11
2023-03-25T19:35:19.980Z,12.08
2023-03-25T19:37:47.328Z,12.10
2023-03-25T19:40:17.445Z,12.08
2023-03-25T19:42:45.343Z,12.03
2023-03-25T19:45:14.832Z,11.98
2023-03-25T19:47:44.646Z,11.96
2023-03-25T19:50:39.761Z,11.99
2023-03-25T19:53:07.296Z,11.98
2023-03-25T19:55:36.979Z,11.99
2023-03-25T19:58:29.926Z,11.91
2023-03-25T20:01:05.373Z,11.89
2023-03-25T20:03:34.825Z,11.93
2023-03-25T20:06:03.567Z,11.88
2023-03-25T20:08:30.615Z,11.83
2023-03-25T20:10:57.868Z,11.74
2023-03-25T20:13:25.058Z,11.73
2023-03-25T20:15:52.971Z,11.72
2023-03-25T20:18:20.135Z,11.73
2023-03-25T20:20:48.299Z,11.69
2023-03-25T20:23:15.428Z,11.64
2023-03-25T20:25:42.468Z,11.59
2023-03-25T20:28:09.891Z,11.60
2023-03-25T20:30:37.033Z,11.60
2023-03-25T20:33:04.678Z,11.60
2023-03-25T20:35:32.584Z,11.60
2023-03-25T20:38:00.819Z,11.55
2023-03-25T20:40:41.431Z,11.41
2023-03-25T20:43:12.046Z,11.17
2023-03-25T20:45:39.404Z,10.96
2023-03-25T20:48:06.683Z,10.83
2023-03-25T20:50:33.543Z,10.55
2023-03-25T20:53:02.788Z,10.46
2023-03-25T20:55:29.811Z,10.31
2023-03-25T20:57:56.896Z,10.33
2023-03-25T21:00:23.779Z,10.43
2023-03-25T21:02:51.308Z,10.47
2023-03-25T21:05:18.358Z,10.45
2023-03-25T21:07:45.331Z,10.31
2023-03-25T21:10:13.579Z,10.42
2023-03-25T21:12:44.387Z,10.40
2023-03-25T21:15:13.815Z,10.15
2023-03-25T21:17:40.892Z,10.28
2023-03-25T21:20:10.685Z,10.36
2023-03-25T21:22:40.816Z,10.29
2023-03-25T21:25:08.693Z,10.00
2023-03-25T21:27:39.244Z,10.04
2023-03-25T21:30:09.167Z,9.64
2023-03-25T21:32:36.055Z,9.71
2023-03-25T21:35:03.488Z,9.46
2023-03-25T21:37:30.469Z,9.34
2023-03-25T21:39:57.464Z,9.25
2023-03-25T21:42:24.534Z,9.25
2023-03-25T21:44:52.776Z,9.28
2023-03-25T21:47:19.646Z,9.37
2023-03-25T21:49:46.496Z,9.47
2023-03-25T21:52:13.441Z,9.63
2023-03-25T21:54:40.267Z,9.84
2023-03-25T21:57:07.261Z,9.93
2023-03-25T21:59:34.344Z,10.00
2023-03-25T22:02:02.993Z,9.99
2023-03-25T22:04:29.928Z,10.13
2023-03-25T22:06:56.720Z,9.90
2023-03-25T22:09:23.507Z,9.86
2023-03-25T22:11:50.248Z,9.90
2023-03-25T22:14:16.998Z,9.82
2023-03-25T22:16:43.853Z,9.84
2023-03-25T22:19:12.509Z,9.80
2023-03-25T22:21:39.459Z,9.81
2023-03-25T22:24:08.141Z,9.72
2023-03-25T22:26:37.452Z,9.68
2023-03-25T22:29:07.841Z,9.90
2023-03-25T22:31:37.721Z,9.77
2023-03-25T22:34:05.735Z,9.39
2023-03-25T22:36:34.630Z,9.45
2023-03-25T22:39:01.643Z,9.36
2023-03-25T22:41:28.509Z,9.10
2023-03-25T22:43:55.529Z,8.90
2023-03-25T22:46:23.411Z,8.83
2023-03-25T22:48:50.693Z,8.74
2023-03-25T22:51:20.546Z,8.78
2023-03-25T22:53:48.918Z,8.87
2023-03-25T22:56:16.105Z,8.91
2023-03-25T22:58:43.010Z,9.00
2023-03-25T23:01:19.826Z,8.88
2023-03-25T23:03:47.250Z,9.02
2023-03-25T23:06:14.664Z,8.98
2023-03-25T23:08:42.959Z,9.02
2023-03-25T23:11:15.665Z,9.13
2023-03-25T23:13:52.689Z,8.95
2023-03-25T23:16:23.933Z,8.77
2023-03-25T23:18:51.530Z,8.70
2023-03-25T23:21:21.499Z,8.57
2023-03-25T23:23:53.106Z,8.52
2023-03-25T23:26:37.760Z,8.62
2023-03-25T23:29:07.582Z,8.81
2023-03-25T23:34:43.434Z,9.12
2023-03-25T23:37:10.416Z,9.21
2023-03-25T23:39:42.796Z,9.19
2023-03-25T23:42:17.623Z,8.96
2023-03-25T23:44:48.546Z,8.95
2023-03-25T23:47:18.619Z,9.04
2023-03-25T23:49:51.496Z,9.18
2023-03-25T23:52:27.615Z,9.23
2023-03-25T23:54:56.887Z,9.23
2023-03-25T23:57:31.124Z,9.11
